Time;durP1;ratioP1;P1;durP2;ratioP2;P2;SDS_P1;SDS_P2;PMS_P1;PMS_P2;Temp;Humidity;BMP_temperature;BMP_pressure;BME280_temperature;BME280_humidity;BME280_pressure;Samples;Min_cycle;Max_cycle;Signal;HPM_P1;HPM_P2
2022/11/12 00:02:44;;;;;;;17.83;9.60;;;7.30;99.90;;;10.48;57.88;99147.09;4908856;29;20052;-58
2022/11/12 00:05:32;;;;;;;16.17;10.93;;;7.30;99.90;;;10.42;57.78;99143.13;4913149;29;20046;-58
2022/11/12 00:08:20;;;;;;;14.53;10.03;;;7.20;99.90;;;10.43;57.84;99151.97;4911547;29;20044;-57
2022/11/12 00:11:06;;;;;;;19.83;10.83;;;7.20;99.90;;;10.41;57.66;99152.09;4909647;29;20048;-58
2022/11/12 00:13:53;;;;;;;17.00;11.03;;;7.20;99.90;;;10.41;58.02;99153.88;4910580;29;20052;-58
2022/11/12 00:16:39;;;;;;;18.70;10.87;;;7.20;99.90;;;10.40;57.72;99158.38;4910362;29;20049;-58
2022/11/12 00:19:26;;;;;;;13.30;8.77;;;7.20;99.90;;;10.42;57.45;99156.44;4914139;29;20044;-58
2022/11/12 00:22:12;;;;;;;12.40;8.80;;;7.20;99.90;;;10.42;57.76;99143.13;4912015;29;20055;-59
2022/11/12 00:24:59;;;;;;;13.17;9.07;;;7.20;99.90;;;10.40;57.56;99149.56;4909861;29;20077;-58
2022/11/12 00:27:46;;;;;;;21.80;8.87;;;7.10;99.90;;;10.36;57.69;99151.59;4913938;29;20054;-56
2022/11/12 00:30:33;;;;;;;17.10;11.00;;;7.10;99.90;;;10.35;57.66;99141.94;4911731;29;20070;-59
2022/11/12 00:33:19;;;;;;;13.67;10.03;;;7.00;99.90;;;10.32;57.56;99144.00;4909865;29;20048;-58
2022/11/12 00:36:07;;;;;;;12.03;8.63;;;7.00;99.90;;;10.31;58.02;99136.97;4913719;29;20338;-58
2022/11/12 00:38:53;;;;;;;11.23;8.50;;;7.10;99.90;;;10.30;58.02;99140.59;4910624;29;20050;-58
2022/11/12 00:41:40;;;;;;;14.20;9.50;;;7.10;99.90;;;10.27;57.50;99141.66;4909832;29;20062;-59
2022/11/12 00:44:28;;;;;;;10.87;8.13;;;7.00;99.90;;;10.21;57.62;99150.97;4912628;29;20368;-58
2022/11/12 00:47:15;;;;;;;12.00;8.60;;;6.90;99.90;;;10.23;57.67;99153.53;4910979;29;20245;-58
2022/11/12 00:50:02;;;;;;;8.73;6.90;;;7.00;99.90;;;10.22;58.20;99144.69;4908184;29;20051;-58
2022/11/12 00:52:52;;;;;;;8.93;6.13;;;7.10;99.90;;;10.24;58.44;99149.91;4912925;29;20234;-57
2022/11/12 00:55:38;;;;;;;7.63;6.20;;;7.10;99.90;;;10.22;58.60;99149.19;4923485;29;20246;-58
2022/11/12 00:58:27;;;;;;;9.83;6.40;;;7.10;99.90;;;10.19;58.71;99152.91;4908604;29;20055;-58
2022/11/12 01:01:14;;;;;;;7.70;6.23;;;7.10;99.90;;;10.22;58.43;99152.69;4912017;29;20050;-59
2022/11/12 01:04:01;;;;;;;7.50;5.80;;;7.10;99.90;;;10.25;58.65;99148.91;4909728;29;20246;-56
2022/11/12 01:06:48;;;;;;;8.13;6.60;;;7.10;99.90;;;10.23;58.72;99148.19;4908804;29;20179;-57
2022/11/12 01:09:35;;;;;;;7.57;5.93;;;7.10;99.90;;;10.23;58.31;99148.19;4912598;29;20054;-57
2022/11/12 01:12:21;;;;;;;7.07;5.47;;;7.10;99.90;;;10.19;58.58;99147.59;4910990;29;20046;-58
2022/11/12 01:15:08;;;;;;;9.33;6.70;;;7.00;99.90;;;10.21;58.36;99139.50;4912648;29;20254;-59
2022/11/12 01:17:55;;;;;;;6.57;5.13;;;7.10;99.90;;;10.16;58.18;99137.22;4906668;29;20050;-58
2022/11/12 01:20:41;;;;;;;8.10;5.77;;;7.00;99.90;;;10.12;58.12;99138.44;4912816;29;20071;-58
2022/11/12 01:23:31;;;;;;;6.47;5.73;;;6.90;99.90;;;10.00;58.38;99134.06;4909592;29;20055;-58
2022/11/12 01:26:21;;;;;;;7.63;4.93;;;6.80;99.90;;;9.95;58.43;99131.78;4907621;29;20369;-58
2022/11/12 01:29:08;;;;;;;7.03;5.30;;;6.70;99.90;;;9.95;58.37;99129.09;4911159;29;20239;-59
2022/11/12 01:31:55;;;;;;;6.27;4.47;;;6.70;99.90;;;9.94;58.45;99135.38;4910183;29;20067;-58
2022/11/12 01:34:41;;;;;;;7.40;5.37;;;6.70;99.90;;;9.92;58.15;99123.19;4907915;29;20055;-59
2022/11/12 01:37:28;;;;;;;6.27;4.87;;;6.60;99.90;;;9.92;58.38;99128.50;4911743;29;20055;-58
2022/11/12 01:40:16;;;;;;;6.87;5.03;;;6.70;99.90;;;9.94;58.23;99122.09;4909072;29;20246;-59
2022/11/12 01:43:03;;;;;;;6.40;4.63;;;6.80;99.90;;;9.96;58.41;99125.47;4908064;29;20063;-58
2022/11/12 01:45:51;;;;;;;12.17;6.50;;;6.80;99.90;;;9.95;58.03;99128.28;4910415;29;20242;-58
2022/11/12 01:48:49;;;;;;;16.63;8.90;;;6.90;99.90;;;9.94;57.90;99123.91;4909047;29;20051;-58
2022/11/12 01:51:43;;;;;;;9.50;6.47;;;7.00;99.90;;;9.90;57.80;99119.78;4911842;29;20047;-58
2022/11/12 01:54:31;;;;;;;6.72;5.03;;;6.90;99.90;;;9.85;57.98;99107.72;4909127;29;20249;-58
2022/11/12 01:57:30;;;;;;;5.80;4.87;;;6.90;99.90;;;9.85;58.09;99112.19;4908215;29;20050;-58
2022/11/12 02:00:20;;;;;;;7.00;5.47;;;6.90;99.90;;;9.86;58.38;99103.22;4908686;29;20257;-58
2022/11/12 02:03:16;;;;;;;7.00;5.00;;;6.90;99.90;;;9.88;58.27;99103.09;4909599;29;20055;-58
2022/11/12 02:06:12;;;;;;;6.63;4.80;;;6.90;99.90;;;9.88;58.15;99093.31;4906710;29;20051;-57
2022/11/12 02:08:59;;;;;;;8.80;5.47;;;6.80;99.90;;;9.84;57.79;99083.88;4909632;29;20101;-57
2022/11/12 02:11:45;;;;;;;11.27;6.73;;;6.70;99.90;;;9.79;57.57;99081.59;4908780;29;20122;-57
2022/11/12 02:14:33;;;;;;;9.00;6.33;;;6.60;99.90;;;9.74;57.59;99081.09;4907886;29;20068;-58
2022/11/12 02:17:20;;;;;;;7.10;5.07;;;6.60;99.90;;;9.70;57.82;99078.81;4912642;29;20051;-58
2022/11/12 02:20:12;;;;;;;7.23;5.73;;;6.50;99.90;;;9.71;58.06;99084.00;4909750;29;20051;-58
2022/11/12 02:22:58;;;;;;;6.53;4.67;;;6.60;99.90;;;9.74;57.76;99088.25;4909154;29;20528;-58
2022/11/12 02:25:45;;;;;;;7.17;5.33;;;6.60;99.90;;;9.68;57.92;99078.94;4911645;29;20050;-58
2022/11/12 02:28:32;;;;;;;15.70;7.77;;;6.50;99.90;;;9.70;57.89;99081.47;4909396;29;20250;-57
2022/11/12 02:31:18;;;;;;;12.30;7.97;;;6.50;99.90;;;9.70;57.81;99081.47;4908194;29;20050;-58
2022/11/12 02:34:05;;;;;;;9.97;6.97;;;6.60;99.90;;;9.66;57.89;99084.38;4911263;29;20071;-56
2022/11/12 02:36:52;;;;;;;9.73;6.33;;;6.50;99.90;;;9.70;57.74;99081.47;4909850;29;20088;-58
2022/11/12 02:39:38;;;;;;;12.33;5.70;;;6.60;99.90;;;9.73;57.75;99081.22;4908263;29;20055;-58
2022/11/12 02:42:25;;;;;;;9.17;6.27;;;6.60;99.90;;;9.76;57.82;99079.16;4924101;29;20068;-57
2022/11/12 02:45:12;;;;;;;7.50;5.47;;;6.70;99.90;;;9.75;57.70;99076.63;4908420;29;20055;-58
2022/11/12 02:47:58;;;;;;;8.40;5.77;;;6.70;99.90;;;9.74;57.74;99070.47;4907968;29;20054;-58
2022/11/12 02:50:47;;;;;;;7.70;5.30;;;6.80;99.90;;;9.76;57.91;99081.00;4910571;29;20234;-58
2022/11/12 02:53:34;;;;;;;8.33;5.30;;;6.80;99.90;;;9.78;57.54;99074.56;4909343;29;20047;-58
2022/11/12 02:56:20;;;;;;;8.90;5.90;;;6.70;99.90;;;9.78;57.58;99077.22;4906906;29;20051;-58
2022/11/12 02:59:07;;;;;;;12.27;7.93;;;6.70;99.90;;;9.77;57.54;99077.34;4911264;29;20250;-58
2022/11/12 03:01:53;;;;;;;7.73;5.50;;;6.60;99.90;;;9.77;57.43;99083.53;4908655;29;20144;-58
2022/11/12 03:04:40;;;;;;;10.47;6.17;;;6.60;99.90;;;9.78;57.58;99087.88;4906601;29;20149;-57
2022/11/12 03:07:33;;;;;;;9.00;6.50;;;6.60;99.90;;;9.76;57.35;99092.47;4910060;29;20373;-57
2022/11/12 03:10:20;;;;;;;11.17;6.17;;;6.50;99.90;;;9.73;57.33;99094.50;4909212;29;20373;-57
2022/11/12 03:13:06;;;;;;;8.47;5.97;;;6.50;99.90;;;9.72;57.69;99101.66;4908754;29;20051;-58
2022/11/12 03:16:01;;;;;;;8.03;5.80;;;6.50;99.90;;;9.71;57.51;99097.28;4913913;29;20055;-57
2022/11/12 03:18:47;;;;;;;;;;;6.50;99.90;;;9.77;57.57;99095.97;4911556;29;20051;-58
2022/11/12 03:21:33;;;;;;;9.20;5.27;;;6.50;99.90;;;9.78;57.31;99100.34;4915707;29;20217;-57
2022/11/12 03:24:20;;;;;;;8.77;6.17;;;6.50;99.90;;;9.76;57.53;99099.59;4913358;29;20357;-58
2022/11/12 03:27:07;;;;;;;7.50;5.20;;;6.50;99.90;;;9.78;57.78;99105.66;4911078;29;20051;-58
2022/11/12 03:29:53;;;;;;;9.40;5.97;;;6.50;99.90;;;9.78;57.62;99103.81;4915172;29;20070;-57
2022/11/12 03:32:40;;;;;;;7.67;5.57;;;6.60;99.90;;;9.77;57.85;99102.16;4913884;29;20047;-58
2022/11/12 03:35:27;;;;;;;8.07;5.27;;;6.60;99.90;;;9.78;57.62;99087.88;4911157;29;20051;-58
2022/11/12 03:38:13;;;;;;;7.73;5.07;;;6.60;99.90;;;9.79;57.73;99092.22;4914251;29;20054;-58
2022/11/12 03:41:00;;;;;;;6.77;4.70;;;6.60;99.90;;;9.82;57.67;99093.78;4912411;29;20250;-59
2022/11/12 03:43:47;;;;;;;8.20;5.57;;;6.60;99.90;;;9.82;57.78;99099.97;4911413;29;20400;-58
2022/11/12 03:46:33;;;;;;;6.47;4.67;;;6.60;99.90;;;9.83;57.39;99096.34;4915093;29;20055;-58
2022/11/12 03:49:24;;;;;;;6.80;5.33;;;6.60;99.90;;;9.84;57.43;99095.34;4913372;29;20051;-58
2022/11/12 03:52:10;;;;;;;8.00;5.03;;;6.60;99.90;;;9.83;57.26;99096.34;4911217;29;20050;-58
2022/11/12 03:54:57;;;;;;;7.33;4.60;;;6.60;99.90;;;9.81;57.31;99097.44;4914470;29;20234;-57
2022/11/12 03:57:46;;;;;;;8.67;5.43;;;6.50;99.90;;;9.78;57.38;99090.53;4912791;29;20055;-58
2022/11/12 04:00:32;;;;;;;7.97;5.13;;;6.50;99.90;;;9.74;57.09;99091.75;4911349;29;20054;-57
2022/11/12 04:03:19;;;;;;;6.50;4.80;;;6.40;99.90;;;9.69;57.15;99091.25;4913690;29;20051;-58
2022/11/12 04:09:11;;;;;;;7.33;5.07;;;6.40;99.90;;;9.66;57.13;99094.16;4909206;29;20264;-57
2022/11/12 04:13:26;;;;;;;9.33;5.87;;;6.40;99.90;;;9.65;57.15;99097.78;4912247;29;20238;-57
2022/11/12 04:15:05;;;;;;;6.93;4.47;;;6.40;99.90;;;9.68;57.17;99096.72;4908146;29;20051;-57
2022/11/12 04:24:03;;;;;;;8.53;4.90;;;6.30;99.90;;;9.62;57.20;99098.88;4911001;29;20050;-56
2022/11/12 04:26:50;;;;;;;7.93;5.07;;;6.40;99.90;;;9.64;57.07;99096.94;4911503;29;20059;-57
2022/11/12 04:32:53;;;;;;;7.73;5.57;;;6.30;99.90;;;9.60;57.25;99089.31;4912388;29;20050;-58
2022/11/12 04:35:40;;;;;;;6.10;4.37;;;6.40;99.90;;;9.58;57.15;99086.78;4909460;29;20051;-58
2022/11/12 04:38:26;;;;;;;7.90;4.67;;;6.30;99.90;;;9.58;57.09;99097.41;4912577;29;20055;-57
2022/11/12 04:47:31;;;;;;;7.87;5.67;;;6.30;99.90;;;9.59;57.07;99096.44;4911938;29;20047;-58
2022/11/12 04:50:18;;;;;;;9.50;6.10;;;6.30;99.90;;;9.60;56.82;99092.00;4909587;29;20050;-56
2022/11/12 04:53:05;;;;;;;8.03;5.93;;;6.30;99.90;;;9.61;57.03;99094.50;4913235;29;20065;-57
2022/11/12 04:55:54;;;;;;;7.33;5.40;;;6.30;99.90;;;9.63;56.94;99097.06;4907440;29;20054;-57
2022/11/12 04:58:40;;;;;;;6.50;4.80;;;6.30;99.90;;;9.63;57.21;99089.06;4909605;29;20066;-56
2022/11/12 05:01:27;;;;;;;8.30;5.30;;;6.40;99.90;;;9.64;56.97;99091.63;4910382;29;20066;-58
2022/11/12 05:04:14;;;;;;;15.23;9.23;;;6.30;99.90;;;9.60;57.01;99084.84;4910680;29;20075;-58
2022/11/12 05:07:01;;;;;;;12.43;9.43;;;6.30;99.90;;;9.62;56.80;99082.91;4908421;29;20054;-57
2022/11/12 05:09:47;;;;;;;17.97;13.03;;;6.30;99.90;;;9.62;56.99;99090.06;4912747;29;20055;-57
2022/11/12 05:12:34;;;;;;;11.50;7.70;;;6.20;99.90;;;9.61;57.13;99096.31;4910761;29;20055;-57
2022/11/12 05:15:21;;;;;;;14.67;7.10;;;6.30;99.90;;;9.62;56.82;99084.75;4912078;29;20055;-57
2022/11/12 05:18:07;;;;;;;16.73;9.20;;;6.30;99.90;;;9.63;57.06;99097.06;4910765;29;20055;-58
2022/11/12 05:20:54;;;;;;;29.37;17.17;;;6.40;99.90;;;9.64;56.93;99094.28;4909415;29;20242;-57
2022/11/12 05:23:40;;;;;;;31.90;17.00;;;6.40;99.90;;;9.60;56.78;99095.47;4912814;29;20058;-57
2022/11/12 05:26:29;;;;;;;16.87;10.00;;;6.30;99.90;;;9.60;56.78;99095.47;4911225;29;20364;-58
2022/11/12 05:29:16;;;;;;;8.80;6.37;;;6.30;99.90;;;9.60;56.81;99094.66;4909654;29;20051;-58
2022/11/12 05:32:04;;;;;;;10.10;6.53;;;6.30;99.90;;;9.61;56.90;99096.31;4913305;29;20113;-57
2022/11/12 05:34:50;;;;;;;10.57;6.17;;;6.30;99.90;;;9.61;56.70;99096.31;4910510;29;20316;-57
2022/11/12 05:37:37;;;;;;;10.03;6.53;;;6.30;99.90;;;9.63;56.87;99100.56;4909127;29;20063;-56
2022/11/12 05:40:24;;;;;;;7.77;6.13;;;6.30;99.90;;;9.65;56.79;99103.97;4907670;29;20047;-56
2022/11/12 05:43:10;;;;;;;9.60;5.50;;;6.30;99.90;;;9.68;56.91;99097.53;4910052;29;20051;-58
2022/11/12 05:45:57;;;;;;;9.47;6.00;;;6.40;99.90;;;9.69;56.64;99099.22;4908964;29;20047;-57
2022/11/12 05:48:44;;;;;;;8.93;5.53;;;6.40;99.90;;;9.66;56.57;99108.28;4912436;29;20051;-59
2022/11/12 05:51:31;;;;;;;7.00;5.20;;;6.40;99.90;;;9.65;56.61;99101.31;4910604;29;20051;-58
2022/11/12 05:54:18;;;;;;;7.53;5.60;;;6.30;99.90;;;9.64;56.42;99102.25;4908343;29;20373;-57
2022/11/12 05:57:04;;;;;;;6.33;4.60;;;6.30;99.90;;;9.61;56.43;99102.47;4912734;29;20050;-58
2022/11/12 05:59:51;;;;;;;9.20;6.10;;;6.20;99.90;;;9.59;56.13;99096.44;4910673;29;20050;-56
2022/11/12 06:02:38;;;;;;;6.27;5.00;;;6.20;99.90;;;9.55;56.13;99100.31;4908888;29;20066;-57
2022/11/12 06:05:24;;;;;;;7.53;5.10;;;6.20;99.90;;;9.53;56.10;99106.72;4911187;29;20058;-57
2022/11/12 06:08:11;;;;;;;6.70;4.50;;;6.20;99.90;;;9.49;56.26;99110.56;4909744;29;20365;-57
2022/11/12 06:10:57;;;;;;;7.57;4.77;;;6.10;99.90;;;9.44;55.97;99117.09;4908791;29;20389;-57
2022/11/12 06:13:44;;;;;;;6.63;4.87;;;6.00;99.90;;;9.40;55.98;99122.75;4910192;29;20055;-56
2022/11/12 06:16:31;;;;;;;7.20;5.10;;;6.00;99.90;;;9.36;55.87;99130.09;4909747;29;20047;-58
2022/11/12 06:19:17;;;;;;;7.43;5.30;;;6.00;99.90;;;9.32;55.93;99131.31;4906683;29;20074;-58
2022/11/12 06:22:04;;;;;;;9.13;6.83;;;5.90;99.90;;;9.27;55.84;99129.00;4911310;29;20234;-58
2022/11/12 06:24:51;;;;;;;8.73;6.13;;;5.90;99.90;;;9.19;55.97;99136.72;4908601;29;20372;-57
2022/11/12 06:27:38;;;;;;;7.27;5.43;;;5.90;99.90;;;9.11;55.70;99140.91;4907434;29;20250;-57
2022/11/12 06:30:24;;;;;;;9.50;6.30;;;5.70;99.90;;;9.02;56.19;99138.00;4909976;29;20059;-58
2022/11/12 06:33:11;;;;;;;7.93;6.07;;;5.70;99.90;;;8.98;56.21;99139.19;4909042;29;20051;-58
2022/11/12 06:36:04;;;;;;;10.40;7.47;;;5.60;99.90;;;8.96;56.41;99138.44;4907224;29;20055;-56
2022/11/12 06:38:50;;;;;;;10.90;8.07;;;5.60;99.90;;;8.91;56.32;99134.44;4910123;29;20118;-58
2022/11/12 06:41:37;;;;;;;13.50;8.17;;;5.60;99.90;;;8.86;56.59;99132.97;4908913;29;20047;-58
2022/11/12 06:44:24;;;;;;;12.57;7.73;;;5.50;99.90;;;8.82;56.52;99133.31;4906307;29;20238;-60
2022/11/12 06:47:10;;;;;;;10.03;7.47;;;5.50;99.90;;;8.80;56.62;99137.88;4908914;29;20055;-58
2022/11/12 06:49:57;;;;;;;12.80;7.03;;;5.50;99.90;;;8.76;56.61;99131.09;4908608;29;20051;-58
2022/11/12 06:52:44;;;;;;;10.90;7.17;;;5.50;99.90;;;8.73;56.77;99131.34;4911821;29;20067;-58
2022/11/12 06:55:32;;;;;;;9.27;6.83;;;5.40;99.90;;;8.69;56.89;99137.84;4909011;29;20047;-58
2022/11/12 06:58:19;;;;;;;10.20;5.63;;;5.30;99.90;;;8.65;57.17;99130.09;4905820;29;20059;-58
2022/11/12 07:01:12;;;;;;;10.63;7.37;;;5.30;99.90;;;8.62;56.90;99132.97;4906683;29;20257;-58
2022/11/12 07:03:58;;;;;;;8.17;5.77;;;5.30;99.90;;;8.64;57.39;99131.03;4909584;29;20054;-58
2022/11/12 07:06:45;;;;;;;11.00;6.50;;;5.40;99.90;;;8.71;57.28;99130.63;4908085;29;20066;-58
2022/11/12 07:09:32;;;;;;;12.37;7.70;;;5.50;99.90;;;8.74;57.15;99125.06;4911492;29;20047;-60
2022/11/12 07:12:18;;;;;;;12.60;7.27;;;5.50;99.90;;;8.76;57.20;99121.34;4909267;29;20078;-58
2022/11/12 07:15:06;;;;;;;7.47;5.60;;;5.50;99.90;;;8.78;57.30;99110.59;4905426;29;20047;-58
2022/11/12 07:17:53;;;;;;;10.07;6.90;;;5.50;99.90;;;8.80;57.42;99113.97;4910093;29;20047;-57
2022/11/12 07:20:39;;;;;;;8.53;5.40;;;5.60;99.90;;;8.91;57.59;99111.38;4908724;29;20384;-55
2022/11/12 07:23:28;;;;;;;7.57;5.47;;;5.70;99.90;;;8.99;57.50;99105.50;4906572;29;20368;-58
2022/11/12 07:26:19;;;;;;;9.97;6.07;;;5.80;99.90;;;9.09;57.65;99106.47;4910223;29;20050;-58
2022/11/12 07:29:08;;;;;;;9.03;6.27;;;5.90;99.90;;;9.15;57.42;99111.34;4907267;29;20051;-57
2022/11/12 07:31:54;;;;;;;9.80;5.90;;;6.00;99.90;;;9.26;57.58;99114.03;4898327;29;20051;-57
2022/11/12 07:34:41;;;;;;;9.17;6.17;;;6.10;99.90;;;9.36;57.29;99119.47;4908653;29;20238;-56
2022/11/12 07:37:28;;;;;;;9.13;6.57;;;6.20;99.90;;;9.44;57.49;99114.44;4908284;29;20203;-58
2022/11/12 07:40:15;;;;;;;9.90;6.90;;;6.30;99.90;;;9.53;57.49;99107.56;4905350;29;20051;-59
2022/11/12 07:43:01;;;;;;;7.93;5.87;;;6.40;99.90;;;9.62;57.46;99116.66;4909970;29;20377;-59
2022/11/12 07:45:48;;;;;;;6.73;5.17;;;6.50;99.90;;;9.70;57.39;99113.38;4906740;29;20238;-57
2022/11/12 07:48:34;;;;;;;7.47;5.77;;;6.60;99.90;;;9.78;57.37;99111.81;4906321;29;20067;-59
2022/11/12 07:51:25;;;;;;;7.63;5.27;;;6.60;99.90;;;9.85;57.31;99110.38;4909607;29;20377;-59
2022/11/12 07:54:12;;;;;;;7.73;5.87;;;6.70;99.90;;;9.94;57.46;99110.59;4907153;29;20238;-53
2022/11/12 07:56:59;;;;;;;8.83;5.83;;;6.80;99.90;;;10.03;57.62;99107.22;4911217;29;20050;-57
2022/11/12 07:59:46;;;;;;;7.47;5.13;;;6.90;99.90;;;10.12;57.68;99105.63;4913165;29;20055;-58
2022/11/12 08:02:33;;;;;;;6.73;4.30;;;7.00;99.90;;;10.18;57.36;99100.66;4908523;29;20051;-59
2022/11/12 08:05:20;;;;;;;7.23;5.33;;;7.10;99.90;;;10.28;57.29;99107.94;4914229;29;20051;-58
2022/11/12 08:08:07;;;;;;;7.10;5.37;;;7.20;99.90;;;10.36;57.36;99109.00;4913017;29;20080;-58
2022/11/12 08:10:56;;;;;;;10.83;6.43;;;7.20;99.90;;;10.42;57.66;99102.34;4910790;29;20047;-59
2022/11/12 08:13:43;;;;;;;9.00;6.20;;;7.30;99.90;;;10.44;57.65;99119.88;4911783;29;20067;-59
2022/11/12 08:16:30;;;;;;;10.07;5.70;;;7.30;99.90;;;10.43;57.67;99122.69;4912368;29;20066;-59
2022/11/12 08:19:18;;;;;;;13.73;6.10;;;7.30;99.90;;;10.43;57.25;99125.34;4910447;29;20168;-59
2022/11/12 08:22:05;;;;;;;8.33;5.67;;;7.30;99.90;;;10.47;57.30;99117.94;4909151;29;20047;-59
2022/11/12 08:24:51;;;;;;;11.37;6.10;;;7.30;99.90;;;10.50;57.46;99120.38;4891729;29;20071;-59
2022/11/12 08:27:38;;;;;;;9.70;6.37;;;7.30;99.90;;;10.52;57.59;99116.59;4890291;29;20055;-59
2022/11/12 08:30:29;;;;;;;8.23;6.33;;;7.40;99.90;;;10.54;57.91;99114.66;4895022;29;20231;-59
2022/11/12 08:33:15;;;;;;;9.33;6.90;;;7.50;99.90;;;10.58;57.93;99120.56;4893014;29;20063;-59
2022/11/12 08:36:05;;;;;;;7.60;5.67;;;7.50;99.90;;;10.64;57.95;99112.09;4890922;29;20269;-57
2022/11/12 08:38:53;;;;;;;8.20;5.93;;;7.60;99.90;;;10.68;57.58;99110.84;4894126;29;20067;-59
2022/11/12 08:41:39;;;;;;;9.43;6.30;;;7.60;99.90;;;10.73;58.03;99110.50;4892513;29;20067;-59
2022/11/12 08:44:26;;;;;;;6.83;6.03;;;7.70;99.90;;;10.75;58.04;99112.06;4890373;29;20071;-60
2022/11/12 08:47:13;;;;;;;7.43;6.53;;;7.70;99.90;;;10.76;58.12;99111.09;4893363;29;20051;-60
2022/11/12 08:49:59;;;;;;;8.67;6.60;;;7.70;99.90;;;10.80;58.05;99111.69;4891432;29;20048;-60
2022/11/12 08:52:46;;;;;;;8.37;5.77;;;7.70;99.90;;;10.83;57.88;99114.09;4890663;29;20064;-58
2022/11/12 08:55:34;;;;;;;8.20;6.13;;;7.70;99.90;;;10.89;57.98;99107.41;4894056;29;20231;-58
2022/11/12 08:58:20;;;;;;;7.47;5.97;;;7.80;99.90;;;10.95;58.34;99110.41;4892241;29;20052;-58
2022/11/12 09:01:08;;;;;;;11.43;7.57;;;7.80;99.90;;;11.01;58.41;99112.56;4889563;29;20147;-59
2022/11/12 09:03:55;;;;;;;8.50;6.10;;;7.90;99.90;;;11.10;58.16;99107.44;4893410;29;20055;-57
2022/11/12 09:06:41;;;;;;;8.53;5.97;;;8.00;99.90;;;11.18;58.24;99105.78;4892412;29;20110;-58
2022/11/12 09:09:28;;;;;;;7.87;5.87;;;8.10;99.90;;;11.25;58.35;99105.31;4889496;29;20068;-59
2022/11/12 09:12:18;;;;;;;7.43;5.87;;;8.20;99.90;;;11.34;58.28;99101.84;4893911;29;20308;-59
2022/11/12 09:15:06;;;;;;;7.37;5.50;;;8.30;99.90;;;11.46;58.58;99102.59;4888111;29;20063;-59
2022/11/12 09:18:16;;;;;;;9.13;6.00;;;8.40;99.90;;;11.57;58.14;99098.06;4893414;29;20055;-59
2022/11/12 09:21:10;;;;;;;7.87;5.80;;;8.60;99.90;;;11.68;57.93;99101.63;4890343;29;20242;-59
2022/11/12 09:23:56;;;;;;;6.20;5.07;;;8.70;99.90;;;11.78;58.19;99098.00;4893122;29;20055;-59
2022/11/12 09:26:43;;;;;;;8.13;5.50;;;8.80;99.90;;;11.85;57.98;99089.50;4892960;29;20051;-59
2022/11/12 09:29:29;;;;;;;8.20;6.17;;;8.90;99.90;;;11.92;58.36;99088.84;4889238;29;20068;-59
2022/11/12 09:32:16;;;;;;;7.03;5.37;;;9.00;99.90;;;11.99;58.17;99098.00;4894212;29;20051;-58
2022/11/12 09:35:03;;;;;;;7.23;5.60;;;9.10;99.90;;;12.05;57.91;99080.59;4891479;29;20052;-59
2022/11/12 09:37:49;;;;;;;7.17;5.70;;;9.10;99.90;;;12.14;57.95;99089.63;4889455;29;20052;-58
2022/11/12 09:40:51;;;;;;;7.37;5.50;;;9.10;99.90;;;12.23;57.62;99091.47;4889037;29;20055;-59
2022/11/12 09:43:50;;;;;;;6.17;4.93;;;9.20;99.90;;;12.31;57.88;99096.13;4891321;29;20078;-58
2022/11/12 09:46:54;;;;;;;6.63;5.57;;;9.20;99.90;;;12.40;57.70;99097.97;4888636;29;20059;-57
2022/11/12 09:49:56;;;;;;;6.93;5.20;;;9.40;99.90;;;12.49;57.82;99099.00;4892509;29;20377;-59
2022/11/12 09:52:46;;;;;;;8.27;5.67;;;9.50;99.90;;;12.58;57.61;99101.69;4889231;29;20047;-58
2022/11/12 09:55:40;;;;;;;5.77;4.73;;;9.60;99.90;;;12.65;57.68;99098.44;4891533;29;20063;-59
2022/11/12 09:58:27;;;;;;;7.55;6.00;;;9.70;99.90;;;12.70;57.39;99096.22;4890031;29;20051;-59
2022/11/12 10:01:35;;;;;;;6.43;5.43;;;9.80;99.90;;;12.72;57.71;99099.59;4888251;29;20389;-58
2022/11/12 10:04:52;;;;;;;7.57;5.67;;;9.80;99.90;;;12.79;57.66;99098.03;4891490;29;20056;-59
2022/11/12 10:07:59;;;;;;;7.47;5.70;;;9.90;99.90;;;12.86;57.40;99090.31;4894315;29;20055;-59
2022/11/12 10:11:27;;;;;;;5.93;4.67;;;9.90;99.90;;;12.88;57.34;99094.50;4891315;29;20064;-59
2022/11/12 10:14:39;;;;;;;6.43;4.87;;;9.90;99.90;;;12.94;57.22;99093.94;4880914;29;20052;-59
2022/11/12 10:17:40;;;;;;;6.40;5.37;;;10.00;99.90;;;13.00;57.25;99095.22;4887971;29;20242;-59
2022/11/12 10:21:09;;;;;;;5.87;5.00;;;10.00;99.90;;;12.99;57.01;99091.72;4891480;29;20365;-59
2022/11/12 10:23:57;;;;;;;5.27;4.40;;;10.00;99.90;;;13.03;56.68;99094.09;4892945;29;20051;-59
2022/11/12 10:26:44;;;;;;;6.67;5.00;;;10.00;99.90;;;13.05;56.53;99098.31;4890810;29;20055;-60
2022/11/12 10:30:05;;;;;;;6.47;4.93;;;10.10;99.90;;;13.08;56.97;99091.84;4888810;29;20056;-59
2022/11/12 10:32:52;;;;;;;7.43;4.73;;;10.00;99.90;;;13.11;56.90;99080.88;4893481;29;20055;-59
2022/11/12 10:35:38;;;;;;;7.83;5.90;;;10.10;99.90;;;13.12;56.85;99085.22;4889611;29;20067;-59
2022/11/12 10:38:27;;;;;;;9.47;6.80;;;10.20;99.90;;;13.14;56.95;99088.59;4888200;29;20376;-59
2022/11/12 10:41:22;;;;;;;6.87;5.93;;;10.20;99.90;;;13.18;56.90;99090.84;4905067;29;20055;-59
2022/11/12 10:44:13;;;;;;;9.85;6.72;;;10.20;99.90;;;13.23;56.62;99085.06;4906996;29;20054;-59
2022/11/12 10:47:37;;;;;;;10.70;6.50;;;10.30;99.90;;;13.23;56.99;99085.06;4905000;29;20271;-59
2022/11/12 10:50:42;;;;;;;10.23;7.00;;;10.30;99.90;;;13.28;57.01;99084.63;4889916;29;20044;-59
2022/11/12 10:53:36;;;;;;;12.97;7.47;;;10.40;99.90;;;13.32;57.01;99078.91;4903497;29;20040;-60
2022/11/12 10:56:31;;;;;;;14.15;6.97;;;10.40;99.90;;;13.37;56.73;99081.13;4901847;29;20041;-60
2022/11/12 10:59:23;;;;;;;11.47;7.23;;;10.50;99.90;;;13.46;56.97;99076.75;4919220;29;20041;-59
2022/11/12 11:02:17;;;;;;;8.57;6.57;;;10.50;99.90;;;13.52;56.75;99078.84;4907891;29;20110;-59
2022/11/12 11:05:58;;;;;;;7.80;6.18;;;10.60;99.90;;;13.53;56.65;99078.72;4906904;29;20249;-59
2022/11/12 11:08:51;;;;;;;10.17;7.20;;;10.60;99.90;;;13.62;56.30;99073.47;4872400;29;20056;-59
2022/11/12 11:11:46;;;;;;;9.65;6.47;;;10.70;99.90;;;13.65;56.10;99070.47;4894108;29;20053;-59
2022/11/12 11:14:34;;;;;;;9.00;6.43;;;10.70;99.90;;;13.72;55.87;99066.25;4890844;29;20238;-59
2022/11/12 11:17:21;;;;;;;10.88;6.88;;;10.80;99.90;;;13.75;55.92;99074.00;4888392;29;20048;-59
2022/11/12 11:20:41;;;;;;;10.02;6.25;;;10.80;99.90;;;13.78;55.96;99065.66;4891362;29;20048;-58
2022/11/12 11:24:00;;;;;;;7.07;5.32;;;10.80;99.90;;;13.85;56.15;99063.25;4888070;29;20045;-59
2022/11/12 11:27:11;;;;;;;10.73;6.13;;;10.90;99.90;;;13.91;56.02;99058.13;4889506;29;20250;-59
2022/11/12 11:30:17;;;;;;;8.80;5.45;;;11.00;99.90;;;13.95;55.83;99061.38;4892509;29;20045;-59
2022/11/12 11:33:37;;;;;;;7.53;5.70;;;11.00;98.90;;;13.93;55.47;99060.66;4890444;29;20051;-58
2022/11/12 11:36:46;;;;;;;7.65;5.45;;;11.00;98.30;;;13.93;55.39;99055.31;4896241;29;20051;-59
2022/11/12 11:39:48;;;;;;;7.50;5.97;;;11.00;99.00;;;13.99;55.71;99060.06;4892398;29;20047;-57
2022/11/12 11:42:52;;;;;;;8.05;6.07;;;11.10;99.50;;;14.00;55.39;99056.41;4895483;29;20059;-57
2022/11/12 11:46:26;;;;;;;7.55;5.65;;;11.10;98.90;;;13.99;55.56;99050.19;4892868;29;20377;-58
2022/11/12 11:49:46;;;;;;;9.73;5.72;;;11.10;98.30;;;14.02;55.75;99050.91;4894222;29;20055;-60
2022/11/12 11:53:03;;;;;;;8.40;5.35;;;11.20;98.50;;;14.14;55.61;99052.38;4891074;29;20059;-59
2022/11/12 11:56:25;;;;;;;7.85;6.22;;;11.30;98.60;;;14.23;55.43;99051.50;4892550;29;20063;-58
2022/11/12 11:59:41;;;;;;;7.55;5.97;;;11.40;98.30;;;14.29;55.12;99048.22;4895128;29;20246;-59
2022/11/12 12:03:08;;;;;;;8.15;5.25;;;11.50;96.80;;;14.33;55.18;99044.22;4904943;29;20047;-59
2022/11/12 12:06:15;;;;;;;7.75;5.47;;;11.50;97.00;;;14.38;55.15;99041.09;4894344;29;20071;-59
2022/11/12 12:09:30;;;;;;;8.23;6.85;;;11.60;97.20;;;14.40;55.01;99039.09;4891842;29;20055;-59
2022/11/12 12:12:49;;;;;;;12.65;6.15;;;11.60;95.60;;;14.38;54.68;99033.91;4893943;29;20047;-59
2022/11/12 12:15:39;;;;;;;6.75;5.35;;;11.50;93.90;;;14.33;54.05;99030.84;4905616;29;20048;-59
2022/11/12 12:18:48;;;;;;;6.53;5.13;;;11.50;95.10;;;14.29;54.62;99028.63;4911071;29;20046;-59
2022/11/12 12:21:39;;;;;;;7.93;5.55;;;11.50;94.20;;;14.32;54.34;99029.13;4914343;29;20054;-59
2022/11/12 12:24:56;;;;;;;6.80;5.20;;;11.50;94.80;;;14.38;54.36;99033.06;4911116;29;20055;-59
2022/11/12 12:28:35;;;;;;;8.32;5.63;;;11.60;94.80;;;14.44;54.23;99026.25;4909071;29;20437;-59
2022/11/12 12:31:34;;;;;;;7.55;6.03;;;11.60;93.90;;;14.50;54.18;99025.63;4908195;29;20051;-60